Terminal Aerodrome Forecast
Issued by NWS Wilmington, NC

Home | Current Version | Previous Version | Text Only | Print | Product List | Glossary On
Versions: 1 2 3 4 5 6 7 8 9 10 11 12 13 14
914
FTUS42 KILM 290541
TAFFLO
TAF
KFLO 290541Z 2906/3006 19008KT P6SM SCT005 BKN011
     FM291200 19006KT P6SM SCT011
     FM291400 21009KT P6SM SCT025
     FM300000 18008KT P6SM SCT250
      TEMPO 3004/3006 BKN010=

USA.gov is the U.S. government's official web portal to all federal, state and local government web resources and services.